Aviation Digital Data Service (ADDS)

Output produced by TAFs form (1916 UTC 31 October 2014)
found at http://aviationweather.gov/adds/tafs/
 
KROW 311741Z 3118/0118 17010KT P6SM SCT250 
     FM010200 16008KT P6SM FEW050 BKN200 
     FM011000 16007KT P6SM BKN050